createdAt,value
2018-09-18T00:01:34.939Z,15.70
2018-09-18T00:04:07.068Z,15.70
2018-09-18T00:06:37.797Z,15.60
2018-09-18T00:09:10.174Z,15.60
2018-09-18T00:11:40.179Z,15.60
2018-09-18T00:14:12.752Z,15.60
2018-09-18T00:16:42.784Z,15.50
2018-09-18T00:19:12.516Z,15.50
2018-09-18T00:21:44.627Z,15.50
2018-09-18T00:24:14.850Z,15.50
2018-09-18T00:26:45.104Z,15.40
2018-09-18T00:29:15.603Z,15.40
2018-09-18T00:31:45.280Z,15.40
2018-09-18T00:34:29.862Z,15.40
2018-09-18T00:37:00.893Z,15.40
2018-09-18T00:39:31.383Z,15.50
2018-09-18T00:42:31.806Z,15.60
2018-09-18T00:45:01.824Z,15.50
2018-09-18T00:47:34.727Z,15.60
2018-09-18T00:50:05.190Z,15.60
2018-09-18T00:52:35.454Z,15.50
2018-09-18T00:55:04.796Z,15.50
2018-09-18T00:57:33.890Z,15.40
2018-09-18T01:00:02.936Z,15.40
2018-09-18T01:02:33.309Z,15.40
2018-09-18T01:05:02.717Z,15.30
2018-09-18T01:07:32.124Z,15.30
2018-09-18T01:10:01.353Z,15.30
2018-09-18T01:12:31.787Z,15.20
2018-09-18T01:15:00.835Z,15.10
2018-09-18T01:17:29.873Z,15.10
2018-09-18T01:19:59.816Z,15.00
2018-09-18T01:22:29.529Z,15.00
2018-09-18T01:24:58.760Z,15.00
2018-09-18T01:27:28.565Z,15.00
2018-09-18T01:29:59.642Z,15.00
2018-09-18T01:32:31.665Z,14.90
2018-09-18T01:35:01.875Z,15.00
2018-09-18T01:37:32.429Z,15.00
2018-09-18T01:40:02.407Z,15.10
2018-09-18T01:42:31.842Z,15.10
2018-09-18T01:45:01.075Z,15.10
2018-09-18T01:47:31.723Z,15.00
2018-09-18T01:50:00.711Z,15.00
2018-09-18T01:52:29.682Z,15.00
2018-09-18T01:54:58.676Z,14.90
2018-09-18T01:57:27.646Z,14.90
2018-09-18T01:59:56.782Z,14.90
2018-09-18T02:02:28.159Z,14.90
2018-09-18T02:04:57.259Z,14.90
2018-09-18T02:07:26.280Z,14.90
2018-09-18T02:09:58.061Z,15.00
2018-09-18T02:12:28.646Z,15.00
2018-09-18T02:14:58.524Z,14.90
2018-09-18T02:17:29.304Z,14.90
2018-09-18T02:20:00.773Z,14.90
2018-09-18T02:22:30.017Z,14.80
2018-09-18T02:24:59.172Z,14.80
2018-09-18T02:27:30.247Z,14.80
2018-09-18T02:29:59.480Z,14.70
2018-09-18T02:32:30.774Z,14.70
2018-09-18T02:35:01.306Z,14.70
2018-09-18T02:37:30.569Z,14.70
2018-09-18T02:40:01.068Z,14.70
2018-09-18T02:42:31.028Z,14.70
2018-09-18T02:45:00.339Z,14.70
2018-09-18T02:47:29.934Z,14.70
2018-09-18T02:49:58.981Z,14.70
2018-09-18T02:52:30.190Z,14.70
2018-09-18T02:55:00.078Z,14.70
2018-09-18T02:57:28.993Z,14.70
2018-09-18T02:59:58.872Z,14.70
2018-09-18T03:02:28.174Z,14.60
2018-09-18T03:04:58.284Z,14.70
2018-09-18T03:07:28.178Z,14.60
2018-09-18T03:09:59.130Z,14.60
2018-09-18T03:12:29.066Z,14.70
2018-09-18T03:14:58.014Z,14.60
2018-09-18T03:17:27.056Z,14.60
2018-09-18T03:19:56.084Z,14.60
2018-09-18T03:22:26.534Z,14.70
2018-09-18T03:24:55.634Z,14.70
2018-09-18T03:27:25.165Z,14.70
2018-09-18T03:29:54.338Z,14.70
2018-09-18T03:32:23.737Z,14.70
2018-09-18T03:34:55.126Z,14.70
2018-09-18T03:37:23.981Z,14.70
2018-09-18T03:39:54.552Z,14.70
2018-09-18T03:42:28.657Z,14.70
2018-09-18T03:45:03.257Z,14.70
2018-09-18T03:47:33.318Z,14.70
2018-09-18T03:50:04.147Z,14.60
2018-09-18T03:55:32.866Z,14.60
2018-09-18T03:58:02.224Z,14.50
2018-09-18T04:00:32.333Z,14.40
2018-09-18T04:03:01.528Z,14.40
2018-09-18T04:05:33.144Z,14.30
2018-09-18T04:08:02.392Z,14.30
2018-09-18T04:10:36.272Z,14.30
2018-09-18T04:13:06.544Z,14.30
2018-09-18T04:15:36.952Z,14.30
2018-09-18T04:18:07.809Z,14.20
2018-09-18T04:20:37.007Z,14.20
2018-09-18T04:23:08.640Z,14.20
2018-09-18T04:25:38.107Z,14.30
2018-09-18T04:31:12.076Z,14.30
2018-09-18T04:33:42.179Z,14.30
2018-09-18T04:36:12.168Z,14.30
2018-09-18T04:38:42.935Z,14.30
2018-09-18T04:41:12.070Z,14.40
2018-09-18T04:43:42.221Z,14.40
2018-09-18T04:46:11.570Z,14.40
2018-09-18T04:48:40.275Z,14.40
2018-09-18T04:51:09.079Z,14.40
2018-09-18T04:53:37.703Z,14.40
2018-09-18T04:56:06.550Z,14.40
2018-09-18T04:58:36.534Z,14.50
2018-09-18T05:01:05.630Z,14.50
2018-09-18T05:03:34.324Z,14.50
2018-09-18T05:06:03.928Z,14.50
2018-09-18T05:08:41.851Z,14.40
2018-09-18T05:11:21.602Z,14.40
2018-09-18T05:13:53.680Z,14.50
2018-09-18T05:16:23.344Z,14.50
2018-09-18T05:18:52.347Z,14.50
2018-09-18T05:21:21.448Z,14.50
2018-09-18T05:23:51.537Z,14.50
2018-09-18T05:26:21.216Z,14.50
2018-09-18T05:28:50.144Z,14.50
2018-09-18T05:31:20.339Z,14.50
2018-09-18T05:33:51.554Z,14.50
2018-09-18T05:36:20.302Z,14.50
2018-09-18T05:38:49.124Z,14.50
2018-09-18T05:41:20.149Z,14.60
2018-09-18T05:43:49.255Z,14.60
2018-09-18T05:46:18.636Z,14.60
2018-09-18T05:48:47.342Z,14.60
2018-09-18T05:51:17.013Z,14.60
2018-09-18T05:53:45.703Z,14.60
2018-09-18T05:56:15.330Z,14.70
2018-09-18T05:58:46.687Z,14.70
2018-09-18T06:01:15.637Z,14.70
2018-09-18T06:03:44.705Z,14.80
2018-09-18T06:06:13.335Z,14.80
2018-09-18T06:08:42.126Z,14.80
2018-09-18T06:11:11.934Z,14.80
2018-09-18T06:13:40.686Z,14.80
2018-09-18T06:16:09.608Z,14.90
2018-09-18T06:18:38.487Z,14.90
2018-09-18T06:21:07.386Z,15.00
2018-09-18T06:23:36.002Z,15.00
2018-09-18T06:26:04.736Z,15.00
2018-09-18T06:28:33.386Z,15.10
2018-09-18T06:31:02.005Z,15.20
2018-09-18T06:33:30.724Z,15.20
2018-09-18T06:35:59.414Z,15.20
2018-09-18T06:38:28.082Z,15.30
2018-09-18T06:40:56.836Z,15.40
2018-09-18T06:43:25.695Z,15.50
2018-09-18T06:45:54.479Z,15.50
2018-09-18T06:48:23.147Z,15.60
2018-09-18T06:50:52.491Z,15.70
2018-09-18T06:53:21.210Z,15.80
2018-09-18T06:55:49.961Z,15.80
2018-09-18T06:58:19.762Z,15.90
2018-09-18T07:00:48.690Z,16.00
2018-09-18T07:03:17.368Z,16.10
2018-09-18T07:05:47.267Z,16.20
2018-09-18T07:08:15.967Z,16.40
2018-09-18T07:10:44.708Z,16.50
2018-09-18T07:13:13.428Z,16.60
2018-09-18T07:15:42.185Z,16.70
2018-09-18T07:18:10.921Z,16.90
2018-09-18T07:20:39.702Z,17.10
2018-09-18T07:23:08.366Z,17.20
2018-09-18T07:25:36.974Z,17.20
2018-09-18T07:28:05.832Z,17.40
2018-09-18T07:30:34.571Z,17.50
2018-09-18T07:33:03.189Z,17.70
2018-09-18T07:35:32.954Z,17.80
2018-09-18T07:38:01.641Z,17.90
2018-09-18T07:40:30.321Z,18.10
2018-09-18T07:42:59.053Z,18.30
2018-09-18T07:45:27.791Z,18.40
2018-09-18T07:47:56.463Z,18.50
2018-09-18T07:50:25.138Z,18.60
2018-09-18T07:52:56.436Z,18.70
2018-09-18T07:55:25.327Z,18.80
2018-09-18T07:57:54.019Z,18.90
2018-09-18T08:00:22.659Z,18.90
2018-09-18T08:02:51.350Z,18.90
2018-09-18T08:05:20.066Z,19.00
2018-09-18T08:07:48.756Z,19.20
2018-09-18T08:10:17.442Z,19.30
2018-09-18T08:12:46.228Z,19.30
2018-09-18T08:15:15.732Z,19.40
2018-09-18T08:17:44.509Z,19.50
2018-09-18T08:20:13.620Z,19.60
2018-09-18T08:22:42.265Z,19.80
2018-09-18T08:25:11.490Z,19.90
2018-09-18T08:27:40.136Z,20.00
2018-09-18T08:30:08.916Z,20.20
2018-09-18T08:32:37.884Z,20.30
2018-09-18T08:35:07.936Z,20.30
2018-09-18T08:37:37.160Z,20.40
2018-09-18T08:40:06.239Z,20.50
2018-09-18T08:42:37.549Z,20.50
2018-09-18T08:45:08.672Z,20.60
2018-09-18T08:47:38.248Z,20.60
2018-09-18T08:50:07.461Z,20.70
2018-09-18T08:52:40.712Z,20.70
2018-09-18T08:55:14.974Z,20.80
2018-09-18T08:57:44.087Z,20.80
2018-09-18T09:00:13.944Z,20.90
2018-09-18T09:02:44.008Z,20.80
2018-09-18T09:05:14.846Z,20.90
2018-09-18T09:07:45.183Z,21.00
2018-09-18T09:10:19.938Z,21.00
2018-09-18T09:12:51.901Z,21.10
2018-09-18T09:15:21.271Z,21.10
2018-09-18T09:17:50.042Z,21.20
2018-09-18T09:20:20.463Z,21.10
2018-09-18T09:22:51.836Z,21.30
2018-09-18T09:25:21.630Z,21.40
2018-09-18T09:27:50.672Z,21.50
2018-09-18T09:30:21.127Z,21.40
2018-09-18T09:32:52.407Z,21.50
2018-09-18T09:35:22.477Z,21.50
2018-09-18T09:37:54.217Z,21.50
2018-09-18T09:40:23.984Z,21.60
2018-09-18T09:42:53.620Z,21.60
2018-09-18T09:45:24.317Z,21.60
2018-09-18T09:47:54.471Z,21.60
2018-09-18T09:50:23.633Z,21.70
2018-09-18T09:52:53.241Z,21.80
2018-09-18T09:55:23.318Z,21.70
2018-09-18T09:57:53.223Z,21.70
2018-09-18T10:00:28.572Z,21.50
2018-09-18T10:02:58.851Z,21.40
2018-09-18T10:05:28.615Z,21.50
2018-09-18T10:07:57.704Z,21.60
2018-09-18T10:10:26.943Z,21.70
2018-09-18T10:12:55.939Z,21.80
2018-09-18T10:15:25.357Z,21.80
2018-09-18T10:17:54.680Z,22.00
2018-09-18T10:20:26.975Z,21.70
2018-09-18T10:23:00.524Z,21.80
2018-09-18T10:25:29.576Z,21.80
2018-09-18T10:27:58.395Z,21.90
2018-09-18T10:30:27.108Z,21.70
2018-09-18T10:32:57.432Z,21.90
2018-09-18T10:35:26.167Z,21.70
2018-09-18T10:37:56.429Z,21.60
2018-09-18T10:40:26.011Z,21.50
2018-09-18T10:42:55.014Z,21.40
2018-09-18T10:45:23.713Z,21.10
2018-09-18T10:47:52.528Z,21.10
2018-09-18T10:50:21.276Z,21.00
2018-09-18T10:52:49.998Z,21.00
2018-09-18T10:55:19.279Z,21.00
2018-09-18T10:57:47.984Z,21.10
2018-09-18T11:00:16.650Z,21.10
2018-09-18T11:02:45.388Z,21.30
2018-09-18T11:05:14.618Z,21.40
2018-09-18T11:07:43.479Z,21.20
2018-09-18T11:10:12.354Z,21.00
2018-09-18T11:12:41.401Z,20.90
2018-09-18T11:15:11.430Z,20.80
2018-09-18T11:17:40.378Z,21.10
2018-09-18T11:20:09.324Z,21.10
2018-09-18T11:22:38.029Z,21.10
2018-09-18T11:25:06.937Z,21.10
2018-09-18T11:27:35.772Z,21.00
2018-09-18T11:30:04.743Z,21.10
2018-09-18T11:32:33.480Z,21.00
2018-09-18T11:35:02.345Z,21.00
2018-09-18T11:37:31.004Z,20.90
2018-09-18T11:39:59.656Z,21.10
2018-09-18T11:42:28.393Z,21.00
2018-09-18T11:44:57.112Z,21.00
2018-09-18T11:47:26.894Z,21.10
2018-09-18T11:49:55.991Z,21.20
2018-09-18T11:52:26.408Z,21.40
2018-09-18T11:54:56.064Z,21.40
2018-09-18T11:57:26.224Z,21.60
2018-09-18T11:59:57.856Z,21.60
2018-09-18T12:02:30.563Z,21.80
2018-09-18T12:05:00.748Z,21.80
2018-09-18T12:07:33.684Z,21.80
2018-09-18T12:13:37.026Z,21.80
2018-09-18T12:16:10.870Z,22.10
2018-09-18T12:18:44.271Z,22.40
2018-09-18T12:21:17.007Z,22.30
2018-09-18T12:23:46.186Z,22.70
2018-09-18T12:26:15.773Z,22.30
2018-09-18T12:28:46.634Z,22.40
2018-09-18T12:31:17.658Z,22.50
2018-09-18T12:33:46.645Z,22.40
2018-09-18T12:36:15.724Z,22.40
2018-09-18T12:38:44.569Z,22.40
2018-09-18T12:41:14.724Z,22.40
2018-09-18T12:43:44.510Z,22.50
2018-09-18T12:46:13.419Z,22.70
2018-09-18T12:48:42.332Z,22.70
2018-09-18T12:51:11.306Z,22.80
2018-09-18T12:53:40.321Z,22.70
2018-09-18T12:56:11.454Z,22.60
2018-09-18T12:58:41.271Z,22.70
2018-09-18T13:01:12.846Z,22.80
2018-09-18T13:03:46.255Z,22.70
2018-09-18T13:06:18.983Z,22.60
2018-09-18T13:08:48.956Z,22.30
2018-09-18T13:11:18.271Z,22.40
2018-09-18T13:13:54.108Z,22.30
2018-09-18T13:16:28.346Z,22.20
2018-09-18T13:18:57.648Z,22.40
2018-09-18T13:21:36.833Z,22.40
2018-09-18T13:24:07.446Z,22.00
2018-09-18T13:26:41.661Z,21.90
2018-09-18T13:29:10.848Z,22.00
2018-09-18T13:31:58.374Z,21.80
2018-09-18T13:34:34.706Z,22.10
2018-09-18T13:37:16.715Z,22.10
2018-09-18T13:40:03.098Z,22.50
2018-09-18T13:42:35.883Z,22.40
2018-09-18T13:45:06.392Z,22.40
2018-09-18T13:47:39.133Z,22.30
2018-09-18T13:50:10.006Z,22.00
2018-09-18T13:52:41.662Z,21.90
2018-09-18T13:55:11.660Z,22.00
2018-09-18T13:57:43.925Z,22.00
2018-09-18T14:00:37.480Z,22.10
2018-09-18T14:03:06.785Z,22.10
2018-09-18T14:05:35.938Z,22.20
2018-09-18T14:08:06.092Z,22.40
2018-09-18T14:10:34.936Z,22.30
2018-09-18T14:13:08.486Z,22.30
2018-09-18T14:15:37.342Z,22.30
2018-09-18T14:18:06.366Z,22.30
2018-09-18T14:21:08.265Z,22.30
2018-09-18T14:23:37.766Z,22.20
2018-09-18T14:26:08.701Z,22.30
2018-09-18T14:28:41.387Z,22.10
2018-09-18T14:31:15.123Z,22.50
2018-09-18T14:33:44.237Z,22.20
2018-09-18T14:36:14.616Z,22.30
2018-09-18T14:38:45.547Z,22.30
2018-09-18T14:41:26.811Z,22.20
2018-09-18T14:43:57.303Z,21.90
2018-09-18T14:46:32.818Z,21.80
2018-09-18T14:49:01.880Z,21.80
2018-09-18T14:51:31.854Z,21.80
2018-09-18T14:54:06.988Z,21.90
2018-09-18T14:56:35.907Z,21.90
2018-09-18T14:59:09.855Z,21.90
2018-09-18T15:01:40.420Z,21.90
2018-09-18T15:04:11.596Z,21.80
2018-09-18T15:06:44.115Z,21.90
2018-09-18T15:09:21.654Z,21.70
2018-09-18T15:12:02.449Z,21.70
2018-09-18T15:14:31.955Z,21.80
2018-09-18T15:17:05.468Z,22.10
2018-09-18T15:19:37.701Z,22.00
2018-09-18T15:22:19.694Z,22.00
2018-09-18T15:24:53.056Z,21.80
2018-09-18T15:27:33.958Z,21.60
2018-09-18T15:30:04.790Z,21.70
2018-09-18T15:32:42.809Z,21.60
2018-09-18T15:38:04.404Z,21.40
2018-09-18T15:40:45.223Z,21.30
2018-09-18T15:43:16.603Z,21.30
2018-09-18T15:45:55.776Z,20.90
2018-09-18T15:48:26.340Z,20.70
2018-09-18T15:50:56.969Z,20.80
2018-09-18T15:53:41.178Z,20.70
2018-09-18T15:56:13.454Z,20.70
2018-09-18T15:58:43.090Z,20.60
2018-09-18T16:01:15.449Z,20.50
2018-09-18T16:03:44.653Z,20.70
2018-09-18T16:06:13.907Z,20.60
2018-09-18T16:08:43.223Z,20.50
2018-09-18T16:11:25.751Z,20.30
2018-09-18T16:13:56.468Z,20.20
2018-09-18T16:16:31.056Z,20.00
2018-09-18T16:19:01.284Z,20.00
2018-09-18T16:21:31.444Z,20.00
2018-09-18T16:24:00.619Z,19.90
2018-09-18T16:26:30.517Z,19.90
2018-09-18T16:29:08.117Z,19.80
2018-09-18T16:31:37.002Z,19.70
2018-09-18T16:34:06.543Z,19.70
2018-09-18T16:36:38.675Z,19.60
2018-09-18T16:39:07.658Z,19.60
2018-09-18T16:41:37.660Z,19.60
2018-09-18T16:44:07.777Z,19.60
2018-09-18T16:46:36.827Z,19.50
2018-09-18T16:49:30.612Z,19.40
2018-09-18T16:51:59.447Z,19.30
2018-09-18T16:54:29.468Z,19.20
2018-09-18T16:57:05.090Z,19.20
2018-09-18T16:59:45.411Z,19.20
2018-09-18T17:02:18.818Z,19.10
2018-09-18T17:04:50.727Z,19.10
2018-09-18T17:07:20.257Z,18.90
2018-09-18T17:09:49.887Z,19.00
2018-09-18T17:12:18.871Z,18.90
2018-09-18T17:14:57.338Z,18.90
2018-09-18T17:17:28.140Z,18.80
2018-09-18T17:19:57.826Z,18.70
2018-09-18T17:22:38.558Z,18.70
2018-09-18T17:28:23.611Z,18.60
2018-09-18T17:30:53.385Z,18.60
2018-09-18T17:33:22.323Z,18.60
2018-09-18T17:35:51.223Z,18.50
2018-09-18T17:38:20.166Z,18.60
2018-09-18T17:40:49.107Z,18.50
2018-09-18T17:43:20.489Z,18.50
2018-09-18T17:45:49.450Z,18.50
2018-09-18T17:48:18.496Z,18.50
2018-09-18T17:50:47.597Z,18.50
2018-09-18T17:53:17.611Z,18.40
2018-09-18T17:55:46.891Z,18.40
2018-09-18T17:58:16.861Z,18.40
2018-09-18T18:00:45.628Z,18.40
2018-09-18T18:03:16.145Z,18.40
2018-09-18T18:05:45.725Z,18.40
2018-09-18T18:08:14.742Z,18.40
2018-09-18T18:10:44.462Z,18.40
2018-09-18T18:13:15.153Z,18.40
2018-09-18T18:15:45.996Z,18.40
2018-09-18T18:18:16.359Z,18.40
2018-09-18T18:20:57.879Z,18.40
2018-09-18T18:23:31.688Z,18.30
2018-09-18T18:26:11.526Z,18.30
2018-09-18T18:28:42.520Z,18.30
2018-09-18T18:31:21.065Z,18.20
2018-09-18T18:33:54.926Z,18.20
2018-09-18T18:36:26.532Z,18.20
2018-09-18T18:38:56.434Z,18.20
2018-09-18T18:41:26.156Z,18.20
2018-09-18T18:44:07.250Z,18.20
2018-09-18T18:47:02.693Z,18.20
2018-09-18T18:49:37.884Z,18.20
2018-09-18T18:52:12.368Z,18.20
2018-09-18T18:54:45.701Z,18.10
2018-09-18T18:57:19.407Z,18.10
2018-09-18T18:59:50.358Z,18.10
2018-09-18T19:02:22.115Z,18.00
2018-09-18T19:04:55.169Z,18.00
2018-09-18T19:07:26.534Z,18.00
2018-09-18T19:09:59.460Z,18.00
2018-09-18T19:12:39.037Z,18.00
2018-09-18T19:15:14.795Z,18.00
2018-09-18T19:17:44.240Z,17.90
2018-09-18T19:20:18.340Z,18.00
2018-09-18T19:22:50.243Z,17.90
2018-09-18T19:25:20.356Z,17.90
2018-09-18T19:27:52.423Z,17.90
2018-09-18T19:30:23.073Z,18.00
2018-09-18T19:32:57.401Z,17.90
2018-09-18T19:35:30.121Z,17.90
2018-09-18T19:38:00.841Z,18.00
2018-09-18T19:40:39.551Z,18.00
2018-09-18T19:43:10.135Z,18.00
2018-09-18T19:45:41.679Z,18.00
2018-09-18T19:48:13.766Z,18.00
2018-09-18T19:50:48.807Z,18.00
2018-09-18T19:53:29.475Z,17.90
2018-09-18T19:56:02.404Z,17.90
2018-09-18T19:58:44.159Z,18.00
2018-09-18T20:01:21.329Z,17.90
2018-09-18T20:03:53.285Z,17.90
2018-09-18T20:06:27.443Z,18.00
2018-09-18T20:09:03.746Z,17.90
2018-09-18T20:11:36.461Z,18.00
2018-09-18T20:14:08.454Z,18.00
2018-09-18T20:16:45.020Z,18.00
2018-09-18T20:19:15.929Z,18.00
2018-09-18T20:21:51.154Z,17.90
2018-09-18T20:24:28.819Z,17.90
2018-09-18T20:27:06.360Z,17.90
2018-09-18T20:29:40.785Z,18.00
2018-09-18T20:32:14.674Z,18.00
2018-09-18T20:35:25.795Z,18.00
2018-09-18T20:38:35.643Z,18.00
2018-09-18T20:46:46.241Z,18.00
2018-09-18T20:49:20.088Z,18.00
2018-09-18T20:52:03.848Z,18.00
2018-09-18T20:54:51.734Z,18.00
2018-09-18T20:57:23.772Z,17.90
2018-09-18T20:59:59.869Z,17.90
2018-09-18T21:02:36.937Z,17.90
2018-09-18T21:05:14.205Z,17.90
2018-09-18T21:07:52.206Z,17.80
2018-09-18T21:10:24.471Z,17.80
2018-09-18T21:12:58.773Z,17.80
2018-09-18T21:15:31.515Z,17.80
2018-09-18T21:18:19.007Z,17.80
2018-09-18T21:20:51.998Z,17.90
2018-09-18T21:23:24.724Z,17.80
2018-09-18T21:26:10.280Z,17.90
2018-09-18T21:28:42.983Z,17.90
2018-09-18T21:31:13.703Z,17.80
2018-09-18T21:33:44.210Z,17.90
2018-09-18T21:36:13.258Z,17.80
2018-09-18T21:38:45.588Z,17.90
2018-09-18T21:41:17.807Z,17.90
2018-09-18T21:43:48.160Z,17.90
2018-09-18T21:46:18.610Z,17.90
2018-09-18T21:48:54.479Z,17.90
2018-09-18T21:51:25.848Z,18.00
2018-09-18T21:53:55.126Z,17.90
2018-09-18T21:56:27.303Z,17.90
2018-09-18T21:59:01.294Z,17.90
2018-09-18T22:01:35.419Z,17.90
2018-09-18T22:04:05.342Z,17.90
2018-09-18T22:06:34.746Z,17.90
2018-09-18T22:09:09.621Z,17.90
2018-09-18T22:11:49.066Z,17.80
2018-09-18T22:14:23.960Z,17.80
2018-09-18T22:16:55.253Z,17.80
2018-09-18T22:19:28.743Z,17.80
2018-09-18T22:22:00.526Z,17.90
2018-09-18T22:24:39.059Z,17.80
2018-09-18T22:27:09.430Z,17.80
2018-09-18T22:29:40.801Z,17.80
2018-09-18T22:32:13.016Z,17.80
2018-09-18T22:34:44.638Z,17.80
2018-09-18T22:37:17.381Z,17.80
2018-09-18T22:39:48.119Z,17.80
2018-09-18T22:42:19.250Z,17.80
2018-09-18T22:44:53.097Z,17.80
2018-09-18T22:47:23.096Z,17.80
2018-09-18T22:49:57.532Z,17.70
2018-09-18T22:52:34.235Z,17.70
2018-09-18T22:55:06.451Z,17.80
2018-09-18T22:57:41.173Z,17.80
2018-09-18T23:00:14.255Z,17.70
2018-09-18T23:02:43.726Z,17.70
2018-09-18T23:05:16.890Z,17.70
2018-09-18T23:07:48.621Z,17.70
2018-09-18T23:10:26.229Z,17.70
2018-09-18T23:12:58.229Z,17.60
2018-09-18T23:15:35.855Z,17.70
2018-09-18T23:20:45.829Z,17.60
2018-09-18T23:23:19.833Z,17.60
2018-09-18T23:25:54.764Z,17.70
2018-09-18T23:28:25.545Z,17.70
2018-09-18T23:30:59.133Z,17.70
2018-09-18T23:33:29.485Z,17.70
2018-09-18T23:35:58.930Z,17.60
2018-09-18T23:38:29.621Z,17.70
2018-09-18T23:41:00.883Z,17.60
2018-09-18T23:43:31.062Z,17.50
2018-09-18T23:46:01.287Z,17.60
2018-09-18T23:48:31.560Z,17.60
2018-09-18T23:51:02.515Z,17.70
2018-09-18T23:53:35.549Z,17.70
2018-09-18T23:56:07.620Z,17.60
2018-09-18T23:58:37.223Z,17.60
